sensor_id;sensor_type;location;lat;lon;timestamp;P1;durP1;ratioP1;P2;durP2;ratioP2
5199;SDS011;2619;47.868;11.892;2022-10-16T00:01:14;7.10;;;2.00;;
5199;SDS011;2619;47.868;11.892;2022-10-16T00:03:42;4.50;;;2.10;;
5199;SDS011;2619;47.868;11.892;2022-10-16T00:06:09;5.83;;;2.40;;
5199;SDS011;2619;47.868;11.892;2022-10-16T00:08:36;3.67;;;1.97;;
5199;SDS011;2619;47.868;11.892;2022-10-16T00:11:04;4.67;;;2.00;;
5199;SDS011;2619;47.868;11.892;2022-10-16T00:13:30;3.57;;;1.90;;
5199;SDS011;2619;47.868;11.892;2022-10-16T00:15:57;2.43;;;1.80;;
5199;SDS011;2619;47.868;11.892;2022-10-16T00:18:24;2.60;;;1.70;;
5199;SDS011;2619;47.868;11.892;2022-10-16T00:20:50;2.90;;;1.83;;
5199;SDS011;2619;47.868;11.892;2022-10-16T00:23:16;3.20;;;1.67;;
5199;SDS011;2619;47.868;11.892;2022-10-16T00:25:42;3.67;;;1.80;;
5199;SDS011;2619;47.868;11.892;2022-10-16T00:28:08;5.30;;;1.90;;
5199;SDS011;2619;47.868;11.892;2022-10-16T00:30:33;3.13;;;1.63;;
5199;SDS011;2619;47.868;11.892;2022-10-16T00:33:03;9.17;;;2.47;;
5199;SDS011;2619;47.868;11.892;2022-10-16T00:35:28;3.03;;;1.60;;
5199;SDS011;2619;47.868;11.892;2022-10-16T00:37:54;3.93;;;2.23;;
5199;SDS011;2619;47.868;11.892;2022-10-16T00:40:19;3.60;;;2.00;;
5199;SDS011;2619;47.868;11.892;2022-10-16T00:42:45;3.90;;;2.30;;
5199;SDS011;2619;47.868;11.892;2022-10-16T00:45:11;5.37;;;2.83;;
5199;SDS011;2619;47.868;11.892;2022-10-16T00:47:37;3.97;;;2.00;;
5199;SDS011;2619;47.868;11.892;2022-10-16T00:50:15;2.53;;;1.87;;
5199;SDS011;2619;47.868;11.892;2022-10-16T00:52:51;4.57;;;2.13;;
5199;SDS011;2619;47.868;11.892;2022-10-16T00:55:18;2.90;;;2.00;;
5199;SDS011;2619;47.868;11.892;2022-10-16T00:57:44;4.83;;;2.10;;
5199;SDS011;2619;47.868;11.892;2022-10-16T01:00:11;5.50;;;2.23;;
5199;SDS011;2619;47.868;11.892;2022-10-16T01:02:39;3.87;;;1.40;;
5199;SDS011;2619;47.868;11.892;2022-10-16T01:05:05;3.50;;;1.63;;
5199;SDS011;2619;47.868;11.892;2022-10-16T01:13:12;2.63;;;1.80;;
5199;SDS011;2619;47.868;11.892;2022-10-16T01:15:52;4.10;;;1.90;;
5199;SDS011;2619;47.868;11.892;2022-10-16T01:21:13;3.73;;;1.90;;
5199;SDS011;2619;47.868;11.892;2022-10-16T01:24:48;3.40;;;2.10;;
5199;SDS011;2619;47.868;11.892;2022-10-16T01:26:58;8.90;;;1.90;;
5199;SDS011;2619;47.868;11.892;2022-10-16T01:29:52;5.53;;;2.10;;
5199;SDS011;2619;47.868;11.892;2022-10-16T01:35:09;3.20;;;2.10;;
5199;SDS011;2619;47.868;11.892;2022-10-16T01:37:50;3.60;;;2.13;;
5199;SDS011;2619;47.868;11.892;2022-10-16T01:40:20;3.80;;;2.13;;
5199;SDS011;2619;47.868;11.892;2022-10-16T01:42:59;6.87;;;2.57;;
5199;SDS011;2619;47.868;11.892;2022-10-16T01:45:28;3.60;;;2.30;;
5199;SDS011;2619;47.868;11.892;2022-10-16T01:47:56;4.53;;;2.10;;
5199;SDS011;2619;47.868;11.892;2022-10-16T01:50:25;3.80;;;2.23;;
5199;SDS011;2619;47.868;11.892;2022-10-16T01:52:52;4.17;;;2.00;;
5199;SDS011;2619;47.868;11.892;2022-10-16T01:55:22;3.53;;;2.00;;
5199;SDS011;2619;47.868;11.892;2022-10-16T01:57:53;3.53;;;1.80;;
5199;SDS011;2619;47.868;11.892;2022-10-16T02:00:19;3.03;;;1.93;;
5199;SDS011;2619;47.868;11.892;2022-10-16T02:02:47;4.23;;;2.43;;
5199;SDS011;2619;47.868;11.892;2022-10-16T02:05:28;2.60;;;1.73;;
5199;SDS011;2619;47.868;11.892;2022-10-16T02:07:57;3.00;;;1.67;;
5199;SDS011;2619;47.868;11.892;2022-10-16T02:10:23;2.97;;;1.73;;
5199;SDS011;2619;47.868;11.892;2022-10-16T02:12:58;2.90;;;1.83;;
5199;SDS011;2619;47.868;11.892;2022-10-16T02:15:31;4.80;;;2.83;;
5199;SDS011;2619;47.868;11.892;2022-10-16T02:17:57;10.03;;;4.90;;
5199;SDS011;2619;47.868;11.892;2022-10-16T02:20:24;9.73;;;5.20;;
5199;SDS011;2619;47.868;11.892;2022-10-16T02:22:53;6.53;;;4.60;;
5199;SDS011;2619;47.868;11.892;2022-10-16T02:33:13;6.00;;;3.00;;
5199;SDS011;2619;47.868;11.892;2022-10-16T02:35:40;7.07;;;2.93;;
5199;SDS011;2619;47.868;11.892;2022-10-16T02:38:08;4.43;;;2.17;;
5199;SDS011;2619;47.868;11.892;2022-10-16T02:40:35;4.60;;;2.07;;
5199;SDS011;2619;47.868;11.892;2022-10-16T02:43:03;3.40;;;2.00;;
5199;SDS011;2619;47.868;11.892;2022-10-16T02:45:29;2.40;;;1.57;;
5199;SDS011;2619;47.868;11.892;2022-10-16T02:47:55;4.00;;;2.00;;
5199;SDS011;2619;47.868;11.892;2022-10-16T02:50:21;2.97;;;1.30;;
5199;SDS011;2619;47.868;11.892;2022-10-16T02:52:47;3.37;;;1.90;;
5199;SDS011;2619;47.868;11.892;2022-10-16T02:55:13;2.90;;;1.80;;
5199;SDS011;2619;47.868;11.892;2022-10-16T02:57:38;5.53;;;1.70;;
5199;SDS011;2619;47.868;11.892;2022-10-16T03:00:05;4.03;;;2.10;;
5199;SDS011;2619;47.868;11.892;2022-10-16T03:02:35;4.07;;;2.73;;
5199;SDS011;2619;47.868;11.892;2022-10-16T03:05:00;2.90;;;1.90;;
5199;SDS011;2619;47.868;11.892;2022-10-16T03:07:26;3.47;;;1.70;;
5199;SDS011;2619;47.868;11.892;2022-10-16T03:09:51;3.10;;;1.90;;
5199;SDS011;2619;47.868;11.892;2022-10-16T03:12:17;3.37;;;1.50;;
5199;SDS011;2619;47.868;11.892;2022-10-16T03:14:42;3.40;;;2.10;;
5199;SDS011;2619;47.868;11.892;2022-10-16T03:17:08;3.97;;;2.03;;
5199;SDS011;2619;47.868;11.892;2022-10-16T03:19:34;5.13;;;2.60;;
5199;SDS011;2619;47.868;11.892;2022-10-16T03:22:00;4.23;;;2.27;;
5199;SDS011;2619;47.868;11.892;2022-10-16T03:24:26;3.90;;;2.03;;
5199;SDS011;2619;47.868;11.892;2022-10-16T03:26:52;5.00;;;2.10;;
5199;SDS011;2619;47.868;11.892;2022-10-16T03:29:17;2.60;;;1.80;;
5199;SDS011;2619;47.868;11.892;2022-10-16T03:31:43;2.93;;;1.80;;
5199;SDS011;2619;47.868;11.892;2022-10-16T03:34:08;4.20;;;1.80;;
5199;SDS011;2619;47.868;11.892;2022-10-16T03:36:34;3.60;;;1.90;;
5199;SDS011;2619;47.868;11.892;2022-10-16T03:39:00;3.33;;;1.90;;
5199;SDS011;2619;47.868;11.892;2022-10-16T03:41:25;4.07;;;2.20;;
5199;SDS011;2619;47.868;11.892;2022-10-16T03:43:51;3.57;;;2.30;;
5199;SDS011;2619;47.868;11.892;2022-10-16T03:46:16;9.47;;;3.30;;
5199;SDS011;2619;47.868;11.892;2022-10-16T03:48:42;5.97;;;3.20;;
5199;SDS011;2619;47.868;11.892;2022-10-16T03:51:08;6.13;;;2.30;;
5199;SDS011;2619;47.868;11.892;2022-10-16T03:53:33;3.13;;;1.90;;
5199;SDS011;2619;47.868;11.892;2022-10-16T03:55:59;7.30;;;2.17;;
5199;SDS011;2619;47.868;11.892;2022-10-16T03:58:25;3.37;;;2.50;;
5199;SDS011;2619;47.868;11.892;2022-10-16T04:00:50;4.10;;;2.27;;
5199;SDS011;2619;47.868;11.892;2022-10-16T04:03:16;3.67;;;2.10;;
5199;SDS011;2619;47.868;11.892;2022-10-16T04:05:43;3.13;;;2.00;;
5199;SDS011;2619;47.868;11.892;2022-10-16T04:08:09;3.70;;;2.00;;
5199;SDS011;2619;47.868;11.892;2022-10-16T04:10:35;3.00;;;2.00;;
5199;SDS011;2619;47.868;11.892;2022-10-16T04:13:00;2.80;;;2.00;;
5199;SDS011;2619;47.868;11.892;2022-10-16T04:15:26;5.00;;;2.70;;
5199;SDS011;2619;47.868;11.892;2022-10-16T04:17:51;3.67;;;2.70;;
5199;SDS011;2619;47.868;11.892;2022-10-16T04:20:17;3.40;;;2.40;;
5199;SDS011;2619;47.868;11.892;2022-10-16T04:22:43;3.27;;;2.30;;
5199;SDS011;2619;47.868;11.892;2022-10-16T04:25:09;4.87;;;2.40;;
5199;SDS011;2619;47.868;11.892;2022-10-16T04:27:35;2.70;;;1.83;;
5199;SDS011;2619;47.868;11.892;2022-10-16T04:30:00;3.30;;;2.37;;
5199;SDS011;2619;47.868;11.892;2022-10-16T04:32:26;3.37;;;2.50;;
5199;SDS011;2619;47.868;11.892;2022-10-16T04:34:52;3.53;;;2.40;;
5199;SDS011;2619;47.868;11.892;2022-10-16T04:37:18;4.03;;;2.60;;
5199;SDS011;2619;47.868;11.892;2022-10-16T04:39:43;3.97;;;2.30;;
5199;SDS011;2619;47.868;11.892;2022-10-16T04:42:09;5.43;;;3.37;;
5199;SDS011;2619;47.868;11.892;2022-10-16T04:44:36;5.30;;;3.70;;
5199;SDS011;2619;47.868;11.892;2022-10-16T04:47:01;5.87;;;3.43;;
5199;SDS011;2619;47.868;11.892;2022-10-16T04:49:27;4.73;;;2.97;;
5199;SDS011;2619;47.868;11.892;2022-10-16T04:51:53;6.03;;;3.10;;
5199;SDS011;2619;47.868;11.892;2022-10-16T04:54:18;5.20;;;3.40;;
5199;SDS011;2619;47.868;11.892;2022-10-16T04:56:44;5.83;;;2.60;;
5199;SDS011;2619;47.868;11.892;2022-10-16T04:59:13;7.50;;;2.10;;
5199;SDS011;2619;47.868;11.892;2022-10-16T05:01:39;4.20;;;2.20;;
5199;SDS011;2619;47.868;11.892;2022-10-16T05:04:05;3.87;;;2.17;;
5199;SDS011;2619;47.868;11.892;2022-10-16T05:06:31;3.23;;;2.17;;
5199;SDS011;2619;47.868;11.892;2022-10-16T05:08:56;4.40;;;2.20;;
5199;SDS011;2619;47.868;11.892;2022-10-16T05:11:22;11.00;;;2.30;;
5199;SDS011;2619;47.868;11.892;2022-10-16T05:13:47;3.20;;;2.20;;
5199;SDS011;2619;47.868;11.892;2022-10-16T05:16:13;2.80;;;1.80;;
5199;SDS011;2619;47.868;11.892;2022-10-16T05:18:38;4.47;;;2.27;;
5199;SDS011;2619;47.868;11.892;2022-10-16T05:21:04;3.30;;;2.07;;
5199;SDS011;2619;47.868;11.892;2022-10-16T05:23:30;4.63;;;2.27;;
5199;SDS011;2619;47.868;11.892;2022-10-16T05:25:56;3.93;;;2.00;;
5199;SDS011;2619;47.868;11.892;2022-10-16T05:28:27;3.50;;;2.33;;
5199;SDS011;2619;47.868;11.892;2022-10-16T05:30:53;3.73;;;2.30;;
5199;SDS011;2619;47.868;11.892;2022-10-16T05:33:20;4.10;;;2.10;;
5199;SDS011;2619;47.868;11.892;2022-10-16T05:35:46;4.33;;;2.57;;
5199;SDS011;2619;47.868;11.892;2022-10-16T05:38:12;3.30;;;2.27;;
5199;SDS011;2619;47.868;11.892;2022-10-16T05:40:38;3.97;;;2.33;;
5199;SDS011;2619;47.868;11.892;2022-10-16T05:43:03;3.40;;;2.13;;
5199;SDS011;2619;47.868;11.892;2022-10-16T05:45:29;5.10;;;2.50;;
5199;SDS011;2619;47.868;11.892;2022-10-16T05:47:55;7.70;;;5.13;;
5199;SDS011;2619;47.868;11.892;2022-10-16T05:50:20;7.03;;;4.07;;
5199;SDS011;2619;47.868;11.892;2022-10-16T05:52:46;5.83;;;4.40;;
5199;SDS011;2619;47.868;11.892;2022-10-16T05:55:11;6.80;;;4.17;;
5199;SDS011;2619;47.868;11.892;2022-10-16T05:57:37;6.50;;;3.83;;
5199;SDS011;2619;47.868;11.892;2022-10-16T06:00:03;7.60;;;3.77;;
5199;SDS011;2619;47.868;11.892;2022-10-16T06:02:30;6.07;;;3.70;;
5199;SDS011;2619;47.868;11.892;2022-10-16T06:04:55;10.57;;;5.90;;
5199;SDS011;2619;47.868;11.892;2022-10-16T06:07:21;6.73;;;4.43;;
5199;SDS011;2619;47.868;11.892;2022-10-16T06:09:48;5.17;;;4.10;;
5199;SDS011;2619;47.868;11.892;2022-10-16T06:12:14;6.03;;;4.20;;
5199;SDS011;2619;47.868;11.892;2022-10-16T06:14:40;6.40;;;3.60;;
5199;SDS011;2619;47.868;11.892;2022-10-16T06:17:06;7.40;;;3.33;;
5199;SDS011;2619;47.868;11.892;2022-10-16T06:19:31;4.73;;;2.77;;
5199;SDS011;2619;47.868;11.892;2022-10-16T06:21:57;5.70;;;3.60;;
5199;SDS011;2619;47.868;11.892;2022-10-16T06:24:23;7.30;;;3.80;;
5199;SDS011;2619;47.868;11.892;2022-10-16T06:26:49;8.90;;;5.30;;
5199;SDS011;2619;47.868;11.892;2022-10-16T06:29:15;12.47;;;6.90;;
5199;SDS011;2619;47.868;11.892;2022-10-16T06:31:40;13.13;;;6.40;;
5199;SDS011;2619;47.868;11.892;2022-10-16T06:34:08;11.97;;;7.13;;
5199;SDS011;2619;47.868;11.892;2022-10-16T06:36:35;10.13;;;7.23;;
5199;SDS011;2619;47.868;11.892;2022-10-16T06:39:01;10.20;;;8.30;;
5199;SDS011;2619;47.868;11.892;2022-10-16T06:41:28;8.97;;;6.50;;
5199;SDS011;2619;47.868;11.892;2022-10-16T06:43:53;8.30;;;6.80;;
5199;SDS011;2619;47.868;11.892;2022-10-16T06:46:20;8.83;;;6.83;;
5199;SDS011;2619;47.868;11.892;2022-10-16T06:48:47;7.13;;;5.27;;
5199;SDS011;2619;47.868;11.892;2022-10-16T06:51:14;13.60;;;5.80;;
5199;SDS011;2619;47.868;11.892;2022-10-16T06:53:45;7.00;;;4.77;;
5199;SDS011;2619;47.868;11.892;2022-10-16T06:56:19;9.23;;;5.60;;
5199;SDS011;2619;47.868;11.892;2022-10-16T06:58:46;6.70;;;4.20;;
5199;SDS011;2619;47.868;11.892;2022-10-16T07:01:13;6.13;;;4.20;;
5199;SDS011;2619;47.868;11.892;2022-10-16T07:03:41;6.90;;;4.43;;
5199;SDS011;2619;47.868;11.892;2022-10-16T07:06:08;5.70;;;4.17;;
5199;SDS011;2619;47.868;11.892;2022-10-16T07:08:36;5.37;;;3.50;;
5199;SDS011;2619;47.868;11.892;2022-10-16T07:11:08;5.73;;;3.77;;
5199;SDS011;2619;47.868;11.892;2022-10-16T07:13:36;5.73;;;3.70;;
5199;SDS011;2619;47.868;11.892;2022-10-16T07:16:06;6.37;;;4.13;;
5199;SDS011;2619;47.868;11.892;2022-10-16T07:18:36;6.80;;;4.77;;
5199;SDS011;2619;47.868;11.892;2022-10-16T07:21:08;5.87;;;3.97;;
5199;SDS011;2619;47.868;11.892;2022-10-16T07:23:36;4.07;;;3.30;;
5199;SDS011;2619;47.868;11.892;2022-10-16T07:26:03;8.00;;;4.07;;
5199;SDS011;2619;47.868;11.892;2022-10-16T07:28:29;4.07;;;3.27;;
5199;SDS011;2619;47.868;11.892;2022-10-16T07:30:59;4.67;;;3.20;;
5199;SDS011;2619;47.868;11.892;2022-10-16T07:33:29;3.90;;;2.80;;
5199;SDS011;2619;47.868;11.892;2022-10-16T07:35:54;4.53;;;3.30;;
5199;SDS011;2619;47.868;11.892;2022-10-16T07:38:20;4.20;;;2.67;;
5199;SDS011;2619;47.868;11.892;2022-10-16T07:40:46;4.17;;;2.90;;
5199;SDS011;2619;47.868;11.892;2022-10-16T07:43:13;4.20;;;3.20;;
5199;SDS011;2619;47.868;11.892;2022-10-16T07:45:48;4.20;;;2.27;;
5199;SDS011;2619;47.868;11.892;2022-10-16T07:48:15;3.63;;;2.60;;
5199;SDS011;2619;47.868;11.892;2022-10-16T07:50:41;4.13;;;3.10;;
5199;SDS011;2619;47.868;11.892;2022-10-16T07:53:07;5.13;;;3.43;;
5199;SDS011;2619;47.868;11.892;2022-10-16T07:55:33;4.50;;;3.47;;
5199;SDS011;2619;47.868;11.892;2022-10-16T07:57:58;4.60;;;3.07;;
5199;SDS011;2619;47.868;11.892;2022-10-16T08:00:24;5.37;;;2.83;;
5199;SDS011;2619;47.868;11.892;2022-10-16T08:02:50;7.63;;;2.80;;
5199;SDS011;2619;47.868;11.892;2022-10-16T08:05:15;3.83;;;2.50;;
5199;SDS011;2619;47.868;11.892;2022-10-16T08:07:41;3.80;;;2.80;;
5199;SDS011;2619;47.868;11.892;2022-10-16T08:10:09;3.13;;;2.40;;
5199;SDS011;2619;47.868;11.892;2022-10-16T08:12:41;3.57;;;2.57;;
5199;SDS011;2619;47.868;11.892;2022-10-16T08:15:07;5.90;;;2.40;;
5199;SDS011;2619;47.868;11.892;2022-10-16T08:17:33;3.50;;;2.23;;
5199;SDS011;2619;47.868;11.892;2022-10-16T08:19:58;3.43;;;2.23;;
5199;SDS011;2619;47.868;11.892;2022-10-16T08:22:24;7.60;;;6.90;;
5199;SDS011;2619;47.868;11.892;2022-10-16T08:24:49;4.00;;;2.70;;
5199;SDS011;2619;47.868;11.892;2022-10-16T08:27:15;4.10;;;2.80;;
5199;SDS011;2619;47.868;11.892;2022-10-16T08:29:40;3.70;;;2.77;;
5199;SDS011;2619;47.868;11.892;2022-10-16T08:32:06;3.73;;;2.77;;
5199;SDS011;2619;47.868;11.892;2022-10-16T08:34:31;4.17;;;3.00;;
5199;SDS011;2619;47.868;11.892;2022-10-16T08:36:57;5.33;;;4.30;;
5199;SDS011;2619;47.868;11.892;2022-10-16T08:39:23;5.33;;;3.47;;
5199;SDS011;2619;47.868;11.892;2022-10-16T08:47:21;3.33;;;2.67;;
5199;SDS011;2619;47.868;11.892;2022-10-16T08:49:58;3.90;;;2.97;;
5199;SDS011;2619;47.868;11.892;2022-10-16T08:52:29;3.73;;;2.53;;
5199;SDS011;2619;47.868;11.892;2022-10-16T08:54:58;4.40;;;3.00;;
5199;SDS011;2619;47.868;11.892;2022-10-16T08:57:25;3.80;;;2.50;;
5199;SDS011;2619;47.868;11.892;2022-10-16T08:59:52;2.90;;;2.37;;
5199;SDS011;2619;47.868;11.892;2022-10-16T09:02:32;3.33;;;2.60;;
5199;SDS011;2619;47.868;11.892;2022-10-16T09:08:16;3.87;;;2.80;;
5199;SDS011;2619;47.868;11.892;2022-10-16T09:16:36;3.70;;;2.77;;
5199;SDS011;2619;47.868;11.892;2022-10-16T09:19:31;4.17;;;2.73;;
5199;SDS011;2619;47.868;11.892;2022-10-16T09:22:09;3.30;;;2.80;;
5199;SDS011;2619;47.868;11.892;2022-10-16T09:24:38;4.40;;;3.03;;
5199;SDS011;2619;47.868;11.892;2022-10-16T09:27:04;3.30;;;2.07;;
5199;SDS011;2619;47.868;11.892;2022-10-16T09:29:29;4.20;;;2.93;;
5199;SDS011;2619;47.868;11.892;2022-10-16T09:31:55;3.40;;;2.90;;
5199;SDS011;2619;47.868;11.892;2022-10-16T09:34:33;4.17;;;2.37;;
5199;SDS011;2619;47.868;11.892;2022-10-16T09:37:03;4.47;;;2.93;;
5199;SDS011;2619;47.868;11.892;2022-10-16T09:39:44;3.40;;;2.70;;
5199;SDS011;2619;47.868;11.892;2022-10-16T09:42:17;4.40;;;2.73;;
5199;SDS011;2619;47.868;11.892;2022-10-16T09:44:52;5.40;;;2.43;;
5199;SDS011;2619;47.868;11.892;2022-10-16T09:47:19;5.60;;;2.90;;
5199;SDS011;2619;47.868;11.892;2022-10-16T09:52:22;4.03;;;2.43;;
5199;SDS011;2619;47.868;11.892;2022-10-16T09:54:52;4.30;;;2.47;;
5199;SDS011;2619;47.868;11.892;2022-10-16T09:57:23;3.27;;;2.33;;
5199;SDS011;2619;47.868;11.892;2022-10-16T09:59:53;3.73;;;3.40;;
5199;SDS011;2619;47.868;11.892;2022-10-16T10:02:28;6.30;;;2.50;;
5199;SDS011;2619;47.868;11.892;2022-10-16T10:04:55;3.30;;;2.03;;
5199;SDS011;2619;47.868;11.892;2022-10-16T10:07:30;3.33;;;2.93;;
5199;SDS011;2619;47.868;11.892;2022-10-16T10:09:59;4.47;;;2.90;;
5199;SDS011;2619;47.868;11.892;2022-10-16T10:12:26;3.90;;;2.70;;
5199;SDS011;2619;47.868;11.892;2022-10-16T10:14:56;3.60;;;2.47;;
5199;SDS011;2619;47.868;11.892;2022-10-16T10:17:28;3.17;;;2.57;;
5199;SDS011;2619;47.868;11.892;2022-10-16T10:19:56;3.90;;;3.37;;
5199;SDS011;2619;47.868;11.892;2022-10-16T10:22:41;4.97;;;3.20;;
5199;SDS011;2619;47.868;11.892;2022-10-16T10:30:22;3.40;;;2.60;;
5199;SDS011;2619;47.868;11.892;2022-10-16T10:41:14;3.67;;;2.40;;
5199;SDS011;2619;47.868;11.892;2022-10-16T10:44:06;3.90;;;2.70;;
5199;SDS011;2619;47.868;11.892;2022-10-16T10:49:26;4.73;;;2.60;;
5199;SDS011;2619;47.868;11.892;2022-10-16T10:57:08;4.03;;;2.97;;
5199;SDS011;2619;47.868;11.892;2022-10-16T11:02:32;3.73;;;3.10;;
5199;SDS011;2619;47.868;11.892;2022-10-16T11:05:21;4.93;;;2.30;;
5199;SDS011;2619;47.868;11.892;2022-10-16T11:08:00;3.43;;;2.20;;
5199;SDS011;2619;47.868;11.892;2022-10-16T11:11:01;5.47;;;2.37;;
5199;SDS011;2619;47.868;11.892;2022-10-16T11:13:32;4.60;;;2.57;;
5199;SDS011;2619;47.868;11.892;2022-10-16T11:16:21;2.83;;;1.77;;
5199;SDS011;2619;47.868;11.892;2022-10-16T11:22:00;2.90;;;1.70;;
5199;SDS011;2619;47.868;11.892;2022-10-16T11:24:52;2.80;;;1.90;;
5199;SDS011;2619;47.868;11.892;2022-10-16T11:27:36;2.77;;;2.00;;
5199;SDS011;2619;47.868;11.892;2022-10-16T11:30:22;3.43;;;2.17;;
5199;SDS011;2619;47.868;11.892;2022-10-16T11:33:12;6.10;;;2.30;;
5199;SDS011;2619;47.868;11.892;2022-10-16T11:35:51;3.60;;;2.57;;
5199;SDS011;2619;47.868;11.892;2022-10-16T11:38:30;2.93;;;2.40;;
5199;SDS011;2619;47.868;11.892;2022-10-16T11:41:52;2.57;;;2.00;;
5199;SDS011;2619;47.868;11.892;2022-10-16T11:44:11;3.87;;;2.50;;
5199;SDS011;2619;47.868;11.892;2022-10-16T11:46:58;4.27;;;2.20;;
5199;SDS011;2619;47.868;11.892;2022-10-16T11:49:34;4.93;;;2.10;;
5199;SDS011;2619;47.868;11.892;2022-10-16T11:53:04;5.70;;;2.07;;
5199;SDS011;2619;47.868;11.892;2022-10-16T11:55:23;3.80;;;2.13;;
5199;SDS011;2619;47.868;11.892;2022-10-16T12:03:22;3.67;;;2.50;;
5199;SDS011;2619;47.868;11.892;2022-10-16T12:06:18;3.93;;;2.77;;
5199;SDS011;2619;47.868;11.892;2022-10-16T12:08:52;7.20;;;2.27;;
5199;SDS011;2619;47.868;11.892;2022-10-16T12:16:38;2.93;;;2.30;;
5199;SDS011;2619;47.868;11.892;2022-10-16T12:19:15;4.07;;;1.70;;
5199;SDS011;2619;47.868;11.892;2022-10-16T12:21:42;4.93;;;2.30;;
5199;SDS011;2619;47.868;11.892;2022-10-16T12:24:20;2.40;;;1.90;;
5199;SDS011;2619;47.868;11.892;2022-10-16T12:26:46;6.73;;;2.30;;
5199;SDS011;2619;47.868;11.892;2022-10-16T12:32:00;3.20;;;2.10;;
5199;SDS011;2619;47.868;11.892;2022-10-16T12:34:28;5.93;;;2.90;;
5199;SDS011;2619;47.868;11.892;2022-10-16T12:39:40;6.07;;;2.40;;
5199;SDS011;2619;47.868;11.892;2022-10-16T12:44:54;3.03;;;2.20;;
5199;SDS011;2619;47.868;11.892;2022-10-16T12:47:21;5.37;;;2.00;;
5199;SDS011;2619;47.868;11.892;2022-10-16T12:52:51;3.30;;;1.90;;
5199;SDS011;2619;47.868;11.892;2022-10-16T12:55:17;2.40;;;2.07;;
5199;SDS011;2619;47.868;11.892;2022-10-16T13:00:40;3.73;;;2.03;;
5199;SDS011;2619;47.868;11.892;2022-10-16T13:14:01;5.50;;;2.10;;
5199;SDS011;2619;47.868;11.892;2022-10-16T13:22:21;6.97;;;2.07;;
5199;SDS011;2619;47.868;11.892;2022-10-16T13:25:16;4.17;;;1.80;;
5199;SDS011;2619;47.868;11.892;2022-10-16T13:30:38;2.53;;;1.67;;
5199;SDS011;2619;47.868;11.892;2022-10-16T13:35:51;6.40;;;1.83;;
5199;SDS011;2619;47.868;11.892;2022-10-16T13:38:19;4.70;;;1.77;;
5199;SDS011;2619;47.868;11.892;2022-10-16T13:40:56;4.60;;;1.50;;
5199;SDS011;2619;47.868;11.892;2022-10-16T13:43:32;2.80;;;1.60;;
5199;SDS011;2619;47.868;11.892;2022-10-16T13:46:02;3.93;;;1.77;;
5199;SDS011;2619;47.868;11.892;2022-10-16T13:48:31;2.00;;;1.30;;
5199;SDS011;2619;47.868;11.892;2022-10-16T13:51:11;2.73;;;1.73;;
5199;SDS011;2619;47.868;11.892;2022-10-16T13:53:41;5.07;;;1.63;;
5199;SDS011;2619;47.868;11.892;2022-10-16T13:56:13;5.47;;;2.20;;
5199;SDS011;2619;47.868;11.892;2022-10-16T13:58:43;5.43;;;1.70;;
5199;SDS011;2619;47.868;11.892;2022-10-16T14:01:25;2.97;;;1.60;;
5199;SDS011;2619;47.868;11.892;2022-10-16T14:04:15;2.13;;;1.30;;
5199;SDS011;2619;47.868;11.892;2022-10-16T14:06:42;3.50;;;1.80;;
5199;SDS011;2619;47.868;11.892;2022-10-16T14:11:45;2.80;;;1.47;;
5199;SDS011;2619;47.868;11.892;2022-10-16T14:14:16;3.93;;;1.83;;
5199;SDS011;2619;47.868;11.892;2022-10-16T14:16:43;2.60;;;1.40;;
5199;SDS011;2619;47.868;11.892;2022-10-16T14:19:13;2.77;;;1.83;;
5199;SDS011;2619;47.868;11.892;2022-10-16T14:21:51;3.30;;;1.50;;
5199;SDS011;2619;47.868;11.892;2022-10-16T14:24:25;4.30;;;1.57;;
5199;SDS011;2619;47.868;11.892;2022-10-16T14:26:51;4.73;;;1.50;;
5199;SDS011;2619;47.868;11.892;2022-10-16T14:29:20;2.00;;;1.20;;
5199;SDS011;2619;47.868;11.892;2022-10-16T14:31:59;2.93;;;1.73;;
5199;SDS011;2619;47.868;11.892;2022-10-16T14:34:38;6.43;;;1.47;;
5199;SDS011;2619;47.868;11.892;2022-10-16T14:37:06;2.50;;;1.57;;
5199;SDS011;2619;47.868;11.892;2022-10-16T14:39:38;4.70;;;1.80;;
5199;SDS011;2619;47.868;11.892;2022-10-16T14:42:11;3.50;;;1.53;;
5199;SDS011;2619;47.868;11.892;2022-10-16T14:44:39;2.50;;;1.40;;
5199;SDS011;2619;47.868;11.892;2022-10-16T14:47:09;4.80;;;1.50;;
5199;SDS011;2619;47.868;11.892;2022-10-16T14:49:41;2.90;;;1.30;;
5199;SDS011;2619;47.868;11.892;2022-10-16T14:52:08;2.40;;;1.43;;
5199;SDS011;2619;47.868;11.892;2022-10-16T14:54:35;2.10;;;1.40;;
5199;SDS011;2619;47.868;11.892;2022-10-16T14:57:01;2.37;;;1.30;;
5199;SDS011;2619;47.868;11.892;2022-10-16T15:00:00;3.20;;;1.80;;
5199;SDS011;2619;47.868;11.892;2022-10-16T15:02:27;5.43;;;1.50;;
5199;SDS011;2619;47.868;11.892;2022-10-16T15:04:58;3.97;;;1.23;;
5199;SDS011;2619;47.868;11.892;2022-10-16T15:07:36;3.73;;;1.70;;
5199;SDS011;2619;47.868;11.892;2022-10-16T15:10:01;3.47;;;1.50;;
5199;SDS011;2619;47.868;11.892;2022-10-16T15:12:27;3.23;;;1.63;;
5199;SDS011;2619;47.868;11.892;2022-10-16T15:14:53;3.97;;;1.40;;
5199;SDS011;2619;47.868;11.892;2022-10-16T15:17:18;2.50;;;1.37;;
5199;SDS011;2619;47.868;11.892;2022-10-16T15:19:44;4.27;;;1.47;;
5199;SDS011;2619;47.868;11.892;2022-10-16T15:22:10;3.07;;;1.70;;
5199;SDS011;2619;47.868;11.892;2022-10-16T15:24:37;6.73;;;1.60;;
5199;SDS011;2619;47.868;11.892;2022-10-16T15:27:02;5.20;;;2.10;;
5199;SDS011;2619;47.868;11.892;2022-10-16T15:29:28;2.70;;;1.47;;
5199;SDS011;2619;47.868;11.892;2022-10-16T15:31:54;7.23;;;1.83;;
5199;SDS011;2619;47.868;11.892;2022-10-16T15:34:19;6.13;;;1.90;;
5199;SDS011;2619;47.868;11.892;2022-10-16T15:36:45;4.73;;;1.47;;
5199;SDS011;2619;47.868;11.892;2022-10-16T15:39:15;4.33;;;1.60;;
5199;SDS011;2619;47.868;11.892;2022-10-16T15:41:42;4.07;;;2.80;;
5199;SDS011;2619;47.868;11.892;2022-10-16T15:44:09;3.10;;;1.37;;
5199;SDS011;2619;47.868;11.892;2022-10-16T15:46:35;5.87;;;1.30;;
5199;SDS011;2619;47.868;11.892;2022-10-16T15:49:02;5.57;;;1.83;;
5199;SDS011;2619;47.868;11.892;2022-10-16T15:51:28;7.37;;;2.37;;
5199;SDS011;2619;47.868;11.892;2022-10-16T15:53:58;6.27;;;2.37;;
5199;SDS011;2619;47.868;11.892;2022-10-16T15:56:26;8.47;;;2.40;;
5199;SDS011;2619;47.868;11.892;2022-10-16T15:58:53;4.73;;;1.60;;
5199;SDS011;2619;47.868;11.892;2022-10-16T16:01:19;4.13;;;1.70;;
5199;SDS011;2619;47.868;11.892;2022-10-16T16:03:45;6.13;;;1.70;;
5199;SDS011;2619;47.868;11.892;2022-10-16T16:06:11;9.77;;;2.30;;
5199;SDS011;2619;47.868;11.892;2022-10-16T16:08:38;5.37;;;1.70;;
5199;SDS011;2619;47.868;11.892;2022-10-16T16:11:05;8.60;;;1.70;;
5199;SDS011;2619;47.868;11.892;2022-10-16T16:13:33;3.30;;;1.90;;
5199;SDS011;2619;47.868;11.892;2022-10-16T16:15:59;5.37;;;2.50;;
5199;SDS011;2619;47.868;11.892;2022-10-16T16:18:25;6.63;;;2.10;;
5199;SDS011;2619;47.868;11.892;2022-10-16T16:20:51;6.60;;;2.30;;
5199;SDS011;2619;47.868;11.892;2022-10-16T16:23:17;6.70;;;3.10;;
5199;SDS011;2619;47.868;11.892;2022-10-16T16:25:44;3.73;;;1.90;;
5199;SDS011;2619;47.868;11.892;2022-10-16T16:28:10;3.77;;;2.13;;
5199;SDS011;2619;47.868;11.892;2022-10-16T16:30:39;4.70;;;2.33;;
5199;SDS011;2619;47.868;11.892;2022-10-16T16:33:05;3.20;;;1.70;;
5199;SDS011;2619;47.868;11.892;2022-10-16T16:35:31;5.23;;;1.90;;
5199;SDS011;2619;47.868;11.892;2022-10-16T16:37:56;6.00;;;2.97;;
5199;SDS011;2619;47.868;11.892;2022-10-16T16:40:22;3.77;;;2.03;;
5199;SDS011;2619;47.868;11.892;2022-10-16T16:42:48;9.90;;;1.97;;
5199;SDS011;2619;47.868;11.892;2022-10-16T16:45:14;11.23;;;2.30;;
5199;SDS011;2619;47.868;11.892;2022-10-16T16:47:40;4.93;;;2.67;;
5199;SDS011;2619;47.868;11.892;2022-10-16T16:50:05;6.43;;;1.80;;
5199;SDS011;2619;47.868;11.892;2022-10-16T16:52:32;6.70;;;2.60;;
5199;SDS011;2619;47.868;11.892;2022-10-16T16:54:58;6.03;;;1.90;;
5199;SDS011;2619;47.868;11.892;2022-10-16T16:57:23;6.93;;;1.93;;
5199;SDS011;2619;47.868;11.892;2022-10-16T16:59:52;9.43;;;2.87;;
5199;SDS011;2619;47.868;11.892;2022-10-16T17:02:18;2.87;;;1.80;;
5199;SDS011;2619;47.868;11.892;2022-10-16T17:04:43;8.97;;;2.43;;
5199;SDS011;2619;47.868;11.892;2022-10-16T17:07:09;4.03;;;2.20;;